createdAt,value
2022-10-09T00:00:09.571Z,2.00
2022-10-09T00:03:10.242Z,1.80
2022-10-09T00:06:09.336Z,2.00
2022-10-09T00:09:06.993Z,2.60
2022-10-09T00:12:04.038Z,3.00
2022-10-09T00:15:02.637Z,2.60
2022-10-09T00:17:59.982Z,3.40
2022-10-09T00:20:56.914Z,1.00
2022-10-09T00:23:55.088Z,2.00
2022-10-09T00:26:51.960Z,2.00
2022-10-09T00:29:50.613Z,4.20
2022-10-09T00:32:48.068Z,2.80
2022-10-09T00:35:45.898Z,2.00
2022-10-09T00:38:43.648Z,2.60
2022-10-09T00:41:41.248Z,4.60
2022-10-09T00:45:00.258Z,3.40
2022-10-09T00:47:59.830Z,2.40
2022-10-09T00:50:58.411Z,2.60
2022-10-09T00:53:56.594Z,2.80
2022-10-09T00:56:53.980Z,2.00
2022-10-09T00:59:50.998Z,3.80
2022-10-09T01:02:48.258Z,2.80
2022-10-09T01:06:30.446Z,1.00
2022-10-09T01:09:59.678Z,3.00
2022-10-09T01:13:09.887Z,2.40
2022-10-09T01:16:20.251Z,2.00
2022-10-09T01:19:46.269Z,3.00
2022-10-09T01:23:05.290Z,3.00
2022-10-09T01:26:22.756Z,2.00
2022-10-09T01:29:20.399Z,2.60
2022-10-09T01:32:21.254Z,2.00
2022-10-09T01:35:19.770Z,3.40
2022-10-09T01:38:16.692Z,2.40
2022-10-09T01:41:13.982Z,2.80
2022-10-09T01:44:25.691Z,2.80
2022-10-09T01:47:23.057Z,2.60
2022-10-09T01:50:25.227Z,2.40
2022-10-09T01:53:22.591Z,5.00
2022-10-09T01:56:21.679Z,2.00
2022-10-09T01:59:19.032Z,4.60
2022-10-09T02:02:16.219Z,1.80
2022-10-09T02:05:19.293Z,3.40
2022-10-09T02:08:17.662Z,3.00
2022-10-09T02:11:15.279Z,3.00
2022-10-09T02:14:11.787Z,3.00
2022-10-09T02:17:14.754Z,2.80
2022-10-09T02:20:15.060Z,3.00
2022-10-09T02:23:12.552Z,5.00
2022-10-09T02:26:09.588Z,3.80
2022-10-09T02:29:07.294Z,3.40
2022-10-09T02:32:05.100Z,3.00
2022-10-09T02:35:02.159Z,3.40
2022-10-09T02:37:59.253Z,5.20
2022-10-09T02:41:00.337Z,5.00
2022-10-09T02:43:57.836Z,3.00
2022-10-09T02:46:54.931Z,3.00
2022-10-09T02:49:51.830Z,3.00
2022-10-09T02:52:49.147Z,2.00
2022-10-09T02:55:46.827Z,3.00
2022-10-09T02:58:43.768Z,3.80
2022-10-09T03:01:40.903Z,3.80
2022-10-09T03:04:37.827Z,5.00
2022-10-09T03:07:35.062Z,5.00
2022-10-09T03:10:32.773Z,6.00
2022-10-09T03:13:30.142Z,8.20
2022-10-09T03:16:27.091Z,6.00
2022-10-09T03:19:24.421Z,4.60
2022-10-09T03:22:22.064Z,10.00
2022-10-09T03:25:19.203Z,5.20
2022-10-09T03:28:16.025Z,10.20
2022-10-09T03:31:22.529Z,9.00
2022-10-09T03:34:30.091Z,9.00
2022-10-09T03:37:27.061Z,8.80
2022-10-09T03:40:23.942Z,9.60
2022-10-09T03:43:21.018Z,8.40
2022-10-09T03:46:18.224Z,10.20
2022-10-09T03:49:15.738Z,9.00
2022-10-09T03:52:13.077Z,9.00
2022-10-09T03:55:10.190Z,8.00
2022-10-09T03:58:06.993Z,6.40
2022-10-09T04:01:04.094Z,9.00
2022-10-09T04:04:01.017Z,11.00
2022-10-09T04:06:57.975Z,10.40
2022-10-09T04:09:55.610Z,10.40
2022-10-09T04:12:53.019Z,10.20
2022-10-09T04:15:51.402Z,5.20
2022-10-09T04:18:48.319Z,7.20
2022-10-09T04:21:45.974Z,9.00
2022-10-09T04:24:43.234Z,9.00
2022-10-09T04:27:40.224Z,12.00
2022-10-09T04:30:37.297Z,9.20
2022-10-09T04:33:34.302Z,8.40
2022-10-09T04:36:31.378Z,10.80
2022-10-09T04:39:27.885Z,9.80
2022-10-09T04:42:25.213Z,9.40
2022-10-09T04:45:22.076Z,9.60
2022-10-09T04:48:19.258Z,10.00
2022-10-09T04:51:16.469Z,9.40
2022-10-09T04:54:14.152Z,8.60
2022-10-09T04:57:11.142Z,12.00
2022-10-09T05:00:08.702Z,9.40
2022-10-09T05:03:06.379Z,8.40
2022-10-09T05:06:04.513Z,9.80
2022-10-09T05:09:02.215Z,8.40
2022-10-09T05:11:58.783Z,8.00
2022-10-09T05:14:55.914Z,9.60
2022-10-09T05:17:53.054Z,10.40
2022-10-09T05:20:50.395Z,8.60
2022-10-09T05:23:47.559Z,8.00
2022-10-09T05:26:45.093Z,10.20
2022-10-09T05:29:42.077Z,10.20
2022-10-09T05:32:38.837Z,9.40
2022-10-09T05:35:36.299Z,11.80
2022-10-09T05:38:33.657Z,12.00
2022-10-09T05:41:31.201Z,9.00
2022-10-09T05:44:28.241Z,7.20
2022-10-09T05:47:25.330Z,10.00
2022-10-09T05:50:21.887Z,10.40
2022-10-09T05:53:19.027Z,10.60
2022-10-09T05:56:17.141Z,11.80
2022-10-09T05:59:15.667Z,12.00
2022-10-09T06:02:13.096Z,11.00
2022-10-09T06:05:12.756Z,11.20
2022-10-09T06:08:10.003Z,12.20
2022-10-09T06:11:20.601Z,16.00
2022-10-09T06:14:18.116Z,16.40
2022-10-09T06:17:15.294Z,12.20
2022-10-09T06:20:12.031Z,15.00
2022-10-09T06:23:09.192Z,17.40
2022-10-09T06:26:11.722Z,9.00
2022-10-09T06:29:09.105Z,15.00
2022-10-09T06:32:07.253Z,11.00
2022-10-09T06:35:04.170Z,12.60
2022-10-09T06:38:01.503Z,12.00
2022-10-09T06:41:05.459Z,13.00
2022-10-09T06:44:06.282Z,12.20
2022-10-09T06:47:02.853Z,13.20
2022-10-09T06:50:00.342Z,12.40
2022-10-09T06:52:57.145Z,13.00
2022-10-09T06:55:54.610Z,14.00
2022-10-09T06:58:52.066Z,9.00
2022-10-09T07:01:49.198Z,15.40
2022-10-09T07:04:47.165Z,15.20
2022-10-09T07:07:44.095Z,13.20
2022-10-09T07:10:41.400Z,16.00
2022-10-09T07:13:38.356Z,11.20
2022-10-09T07:16:37.671Z,10.00
2022-10-09T07:19:35.085Z,12.00
2022-10-09T07:22:32.521Z,12.60
2022-10-09T07:25:30.315Z,13.40
2022-10-09T07:28:28.261Z,10.00
2022-10-09T07:31:25.458Z,9.00
2022-10-09T07:34:22.377Z,12.00
2022-10-09T07:37:19.364Z,10.80
2022-10-09T07:40:16.076Z,10.00
2022-10-09T07:43:13.526Z,10.00
2022-10-09T07:46:13.226Z,10.40
2022-10-09T07:49:09.957Z,7.00
2022-10-09T07:52:06.953Z,10.40
2022-10-09T07:55:04.463Z,9.80
2022-10-09T07:58:01.374Z,9.00
2022-10-09T08:01:06.785Z,8.20
2022-10-09T08:04:04.542Z,6.00
2022-10-09T08:07:02.099Z,9.00
2022-10-09T08:09:59.516Z,9.00
2022-10-09T08:12:56.345Z,8.20
2022-10-09T08:15:53.285Z,7.40
2022-10-09T08:18:54.356Z,9.00
2022-10-09T08:21:51.074Z,8.60
2022-10-09T08:24:48.636Z,10.00
2022-10-09T08:27:46.314Z,10.60
2022-10-09T08:30:43.325Z,9.20
2022-10-09T08:33:40.359Z,7.00
2022-10-09T08:36:37.260Z,6.60
2022-10-09T08:39:34.174Z,8.00
2022-10-09T08:42:32.418Z,6.60
2022-10-09T08:45:29.130Z,7.80
2022-10-09T08:48:25.961Z,8.20
2022-10-09T08:51:28.303Z,6.00
2022-10-09T08:54:34.914Z,4.60
2022-10-09T08:57:32.823Z,5.20
2022-10-09T09:00:58.820Z,6.00
2022-10-09T09:03:56.280Z,5.40
2022-10-09T09:07:19.876Z,5.80
2022-10-09T09:10:48.905Z,3.80
2022-10-09T09:14:09.094Z,5.00
2022-10-09T09:17:14.464Z,5.20
2022-10-09T09:20:26.989Z,3.00
2022-10-09T09:23:33.629Z,4.40
2022-10-09T09:26:31.274Z,2.80
2022-10-09T09:29:28.222Z,6.00
2022-10-09T09:32:26.521Z,4.80
2022-10-09T09:35:32.627Z,5.60
2022-10-09T09:38:30.269Z,5.60
2022-10-09T09:41:30.568Z,4.40
2022-10-09T09:44:27.495Z,7.00
2022-10-09T09:47:28.091Z,3.00
2022-10-09T09:50:56.475Z,3.00
2022-10-09T09:54:04.221Z,2.20
2022-10-09T09:57:13.856Z,4.00
2022-10-09T10:00:16.549Z,5.20
2022-10-09T10:03:14.702Z,2.00
2022-10-09T10:06:22.607Z,4.40
2022-10-09T10:09:19.415Z,3.60
2022-10-09T10:12:16.005Z,4.00
2022-10-09T10:15:29.568Z,3.60
2022-10-09T10:18:28.387Z,4.00
2022-10-09T10:21:24.981Z,3.00
2022-10-09T10:24:27.609Z,3.40
2022-10-09T10:27:29.818Z,4.00
2022-10-09T10:30:27.385Z,3.00
2022-10-09T10:33:29.313Z,3.80
2022-10-09T10:36:26.346Z,3.00
2022-10-09T10:39:37.276Z,2.00
2022-10-09T10:42:43.974Z,2.00
2022-10-09T10:45:53.961Z,2.00
2022-10-09T10:48:51.749Z,1.60
2022-10-09T10:52:18.585Z,1.00
2022-10-09T10:55:41.260Z,2.00
2022-10-09T10:58:47.218Z,2.00
2022-10-09T11:01:44.280Z,2.00
2022-10-09T11:04:50.658Z,2.00
2022-10-09T11:08:00.161Z,1.00
2022-10-09T11:11:06.141Z,0.00
2022-10-09T11:14:21.462Z,1.00
2022-10-09T11:17:45.921Z,1.00
2022-10-09T11:21:01.426Z,2.00
2022-10-09T11:24:40.450Z,1.00
2022-10-09T11:28:09.162Z,2.00
2022-10-09T11:31:15.036Z,2.50
2022-10-09T11:34:21.363Z,1.00
2022-10-09T11:37:21.217Z,10.00
2022-10-09T11:40:23.307Z,1.00
2022-10-09T11:43:23.332Z,1.00
2022-10-09T11:46:44.827Z,5.25
2022-10-09T11:50:03.801Z,1.00
2022-10-09T11:53:10.420Z,2.75
2022-10-09T11:56:09.054Z,1.00
2022-10-09T11:59:06.778Z,3.00
2022-10-09T12:02:24.906Z,10.75
2022-10-09T12:05:42.154Z,4.00
2022-10-09T12:08:43.997Z,2.00
2022-10-09T12:11:41.186Z,8.25
2022-10-09T12:14:38.430Z,7.00
2022-10-09T12:17:35.315Z,1.00
2022-10-09T12:20:41.123Z,5.00
2022-10-09T12:23:39.087Z,3.75
2022-10-09T12:26:36.340Z,7.25
2022-10-09T12:29:41.171Z,3.00
2022-10-09T12:32:46.469Z,6.50
2022-10-09T12:35:45.507Z,5.00
2022-10-09T12:38:42.718Z,4.00
2022-10-09T12:41:39.677Z,1.67
2022-10-09T12:44:39.975Z,22.25
2022-10-09T12:47:37.717Z,23.25
2022-10-09T12:50:34.925Z,2.50
2022-10-09T12:53:32.615Z,20.25
2022-10-09T12:56:33.334Z,22.00
2022-10-09T12:59:30.168Z,16.25
2022-10-09T13:02:27.695Z,4.25
2022-10-09T13:05:40.667Z,10.50
2022-10-09T13:08:38.345Z,8.50
2022-10-09T13:11:42.991Z,9.50
2022-10-09T13:14:52.525Z,21.25
2022-10-09T13:17:49.923Z,15.50
2022-10-09T13:20:47.923Z,18.50
2022-10-09T13:23:45.960Z,12.00
2022-10-09T13:26:43.711Z,22.25
2022-10-09T13:29:44.210Z,20.50
2022-10-09T13:32:41.574Z,10.25
2022-10-09T13:35:38.589Z,26.00
2022-10-09T13:38:35.716Z,16.00
2022-10-09T13:41:32.476Z,25.75
2022-10-09T13:44:29.534Z,17.00
2022-10-09T13:47:26.537Z,23.50
2022-10-09T13:50:24.416Z,31.25
2022-10-09T13:53:21.960Z,11.00
2022-10-09T13:56:19.828Z,24.00
2022-10-09T13:59:16.562Z,12.00
2022-10-09T14:02:13.530Z,14.75
2022-10-09T14:05:10.812Z,23.75
2022-10-09T14:08:07.723Z,23.50
2022-10-09T14:11:04.898Z,26.25
2022-10-09T14:14:02.824Z,28.33
2022-10-09T14:16:59.660Z,27.75
2022-10-09T14:19:56.295Z,24.75
2022-10-09T14:22:53.584Z,25.25
2022-10-09T14:25:50.518Z,30.25
2022-10-09T14:28:47.790Z,27.00
2022-10-09T14:31:44.686Z,22.75
2022-10-09T14:34:41.427Z,25.00
2022-10-09T14:37:42.373Z,27.00
2022-10-09T14:40:43.469Z,20.00
2022-10-09T14:43:40.875Z,24.50
2022-10-09T14:46:39.213Z,19.00
2022-10-09T14:49:36.288Z,26.00
2022-10-09T14:52:33.681Z,25.75
2022-10-09T14:55:30.820Z,34.33
2022-10-09T14:58:29.642Z,28.25
2022-10-09T15:01:26.961Z,18.75
2022-10-09T15:04:25.897Z,25.50
2022-10-09T15:07:28.215Z,24.75
2022-10-09T15:10:25.773Z,17.25
2022-10-09T15:13:25.185Z,18.50
2022-10-09T15:16:22.650Z,22.00
2022-10-09T15:19:19.549Z,17.00
2022-10-09T15:22:17.000Z,14.50
2022-10-09T15:25:16.772Z,21.50
2022-10-09T15:28:13.627Z,15.50
2022-10-09T15:31:29.251Z,15.25
2022-10-09T15:34:26.941Z,5.00
2022-10-09T15:37:23.581Z,12.75
2022-10-09T15:40:20.759Z,10.50
2022-10-09T15:43:18.913Z,10.00
2022-10-09T15:46:16.749Z,11.25
2022-10-09T15:49:13.476Z,9.50
2022-10-09T15:52:10.403Z,24.25
2022-10-09T15:55:08.227Z,21.75
2022-10-09T15:58:05.437Z,13.25
2022-10-09T16:01:04.801Z,23.00
2022-10-09T16:04:01.336Z,18.50
2022-10-09T16:06:58.400Z,10.75
2022-10-09T16:09:56.911Z,22.00
2022-10-09T16:12:53.597Z,17.50
2022-10-09T16:15:50.509Z,18.50
2022-10-09T16:18:48.074Z,12.50
2022-10-09T16:21:45.701Z,17.00
2022-10-09T16:24:43.769Z,11.00
2022-10-09T16:27:40.502Z,17.00
2022-10-09T16:30:42.131Z,21.50
2022-10-09T16:33:39.577Z,11.33
2022-10-09T16:36:36.423Z,23.00
2022-10-09T16:39:33.571Z,18.00
2022-10-09T16:42:31.171Z,20.50
2022-10-09T16:45:29.172Z,19.75
2022-10-09T16:48:27.143Z,17.33
2022-10-09T16:51:27.146Z,15.67
2022-10-09T16:54:24.781Z,13.33
2022-10-09T16:57:21.758Z,12.50
2022-10-09T17:00:19.421Z,9.40
2022-10-09T17:03:16.988Z,13.75
2022-10-09T17:06:15.937Z,13.00
2022-10-09T17:09:13.953Z,9.50
2022-10-09T17:12:13.103Z,16.25
2022-10-09T17:15:10.534Z,17.00
2022-10-09T17:18:07.967Z,19.25
2022-10-09T17:21:06.159Z,23.75
2022-10-09T17:24:04.267Z,14.00
2022-10-09T17:27:01.499Z,14.00
2022-10-09T17:29:58.540Z,14.50
2022-10-09T17:32:55.289Z,8.00
2022-10-09T17:35:52.800Z,8.75
2022-10-09T17:38:49.904Z,15.00
2022-10-09T17:41:47.549Z,21.00
2022-10-09T17:44:44.697Z,7.00
2022-10-09T17:47:41.796Z,7.25
2022-10-09T17:50:38.776Z,13.00
2022-10-09T17:53:35.759Z,8.00
2022-10-09T17:56:32.867Z,2.60
2022-10-09T17:59:29.426Z,6.20
2022-10-09T18:02:27.075Z,3.60
2022-10-09T18:05:24.622Z,9.00
2022-10-09T18:08:22.424Z,5.60
2022-10-09T18:11:20.341Z,4.00
2022-10-09T18:14:17.695Z,3.00
2022-10-09T18:17:15.024Z,5.80
2022-10-09T18:20:11.684Z,7.00
2022-10-09T18:23:09.641Z,8.00
2022-10-09T18:26:08.131Z,6.00
2022-10-09T18:29:06.100Z,8.00
2022-10-09T18:32:03.896Z,15.80
2022-10-09T18:35:01.047Z,4.00
2022-10-09T18:37:58.394Z,12.00
2022-10-09T18:40:55.683Z,8.00
2022-10-09T18:43:53.264Z,8.00
2022-10-09T18:46:55.847Z,9.40
2022-10-09T18:49:53.174Z,10.60
2022-10-09T18:52:50.979Z,13.60
2022-10-09T18:55:49.042Z,9.00
2022-10-09T18:58:45.719Z,13.00
2022-10-09T19:01:42.552Z,9.60
2022-10-09T19:04:39.796Z,11.80
2022-10-09T19:07:36.849Z,8.00
2022-10-09T19:10:33.713Z,13.40
2022-10-09T19:13:30.857Z,13.80
2022-10-09T19:16:28.787Z,14.40
2022-10-09T19:19:25.548Z,12.00
2022-10-09T19:22:24.083Z,10.00
2022-10-09T19:25:22.030Z,8.60
2022-10-09T19:28:19.354Z,6.00
2022-10-09T19:31:17.052Z,8.00
2022-10-09T19:34:13.860Z,8.00
2022-10-09T19:37:10.789Z,7.60
2022-10-09T19:40:08.496Z,10.00
2022-10-09T19:43:05.726Z,7.40
2022-10-09T19:46:04.561Z,9.00
2022-10-09T19:49:01.841Z,6.00
2022-10-09T19:51:58.696Z,8.80
2022-10-09T19:54:55.628Z,8.00
2022-10-09T19:57:52.803Z,11.40
2022-10-09T20:00:49.591Z,6.00
2022-10-09T20:03:47.323Z,6.40
2022-10-09T20:06:45.077Z,6.80
2022-10-09T20:09:42.004Z,7.20
2022-10-09T20:12:39.077Z,8.60
2022-10-09T20:15:35.875Z,4.00
2022-10-09T20:18:33.271Z,6.00
2022-10-09T20:21:31.784Z,4.80
2022-10-09T20:24:28.599Z,4.00
2022-10-09T20:27:25.658Z,6.00
2022-10-09T20:30:22.803Z,6.00
2022-10-09T20:33:19.664Z,6.80
2022-10-09T20:36:20.649Z,6.00
2022-10-09T20:39:19.542Z,3.00
2022-10-09T20:42:17.076Z,7.60
2022-10-09T20:45:14.170Z,6.80
2022-10-09T20:48:11.154Z,7.80
2022-10-09T20:51:07.731Z,8.20
2022-10-09T20:54:05.319Z,10.20
2022-10-09T20:57:02.927Z,8.20
2022-10-09T20:59:59.807Z,8.00
2022-10-09T21:02:56.988Z,7.20
2022-10-09T21:05:53.641Z,6.00
2022-10-09T21:08:51.085Z,10.00
2022-10-09T21:11:47.604Z,5.00
2022-10-09T21:14:45.005Z,4.80
2022-10-09T21:17:42.140Z,4.00
2022-10-09T21:20:39.895Z,6.20
2022-10-09T21:23:36.727Z,5.00
2022-10-09T21:26:35.791Z,5.20
2022-10-09T21:29:32.798Z,3.00
2022-10-09T21:32:29.591Z,5.20
2022-10-09T21:35:26.757Z,5.00
2022-10-09T21:38:24.122Z,5.00
2022-10-09T21:41:20.634Z,5.20
2022-10-09T21:44:18.187Z,6.40
2022-10-09T21:47:20.680Z,5.00
2022-10-09T21:50:17.938Z,2.60
2022-10-09T21:53:14.833Z,4.60
2022-10-09T21:56:12.043Z,3.00
2022-10-09T21:59:08.905Z,4.60
2022-10-09T22:02:06.024Z,2.00
2022-10-09T22:05:02.618Z,5.20
2022-10-09T22:08:00.490Z,1.00
2022-10-09T22:10:57.835Z,5.00
2022-10-09T22:13:55.574Z,3.00
2022-10-09T22:16:52.777Z,6.00
2022-10-09T22:19:50.680Z,6.00
2022-10-09T22:22:48.589Z,3.40
2022-10-09T22:25:56.422Z,1.00
2022-10-09T22:28:53.967Z,5.60
2022-10-09T22:31:51.012Z,5.00
2022-10-09T22:34:50.701Z,3.40
2022-10-09T22:37:48.162Z,3.00
2022-10-09T22:40:47.219Z,2.00
2022-10-09T22:43:45.814Z,3.00
2022-10-09T22:46:43.759Z,3.80
2022-10-09T22:49:40.781Z,5.00
2022-10-09T22:52:37.874Z,3.40
2022-10-09T22:55:34.674Z,1.20
2022-10-09T22:58:32.306Z,5.00
2022-10-09T23:01:35.442Z,5.00
2022-10-09T23:04:32.955Z,4.60
2022-10-09T23:07:29.879Z,5.00
2022-10-09T23:10:26.843Z,3.20
2022-10-09T23:13:23.788Z,4.20
2022-10-09T23:16:20.794Z,3.00
2022-10-09T23:19:18.171Z,2.60
2022-10-09T23:22:15.169Z,5.00
2022-10-09T23:25:12.011Z,4.60
2022-10-09T23:28:09.015Z,5.00
2022-10-09T23:31:11.375Z,4.20
2022-10-09T23:34:08.619Z,5.00
2022-10-09T23:37:06.129Z,6.20
2022-10-09T23:40:03.005Z,3.20
2022-10-09T23:42:59.961Z,4.60
2022-10-09T23:45:58.096Z,3.20
2022-10-09T23:48:54.938Z,4.60
2022-10-09T23:51:52.107Z,4.60
2022-10-09T23:54:49.157Z,5.40
2022-10-09T23:57:45.940Z,3.00
